Time;durP1;ratioP1;P1;durP2;ratioP2;P2;SDS_P1;SDS_P2;PMS_P1;PMS_P2;Temp;Humidity;BMP_temperature;BMP_pressure;BME280_temperature;BME280_humidity;BME280_pressure;Samples;Min_cycle;Max_cycle;Signal;HPM_P1;HPM_P2
2023/06/02 00:01:37;;;;;;;12.70;7.47;;;21.10;83.70;;;;;;5117983;27;20721;-67
2023/06/02 00:04:05;;;;;;;10.53;7.17;;;21.10;83.60;;;;;;5116699;27;20193;-66
2023/06/02 00:06:33;;;;;;;9.03;7.60;;;21.00;83.50;;;;;;5120440;27;20292;-67
2023/06/02 00:09:06;;;;;;;13.03;7.93;;;21.00;83.60;;;;;;5119279;27;20533;-67
2023/06/02 00:11:34;;;;;;;11.27;7.80;;;20.90;83.60;;;;;;5114398;27;20363;-67
2023/06/02 00:14:05;;;;;;;11.27;8.13;;;20.90;83.60;;;;;;5118647;27;20259;-67
2023/06/02 00:16:41;;;;;;;8.87;7.97;;;20.80;83.80;;;;;;5115875;27;20643;-67
2023/06/02 00:19:11;;;;;;;15.20;8.20;;;20.80;84.00;;;;;;5114715;27;20237;-67
2023/06/02 00:21:41;;;;;;;9.33;8.17;;;20.80;84.10;;;;;;5115706;27;20212;-67
2023/06/02 00:24:08;;;;;;;9.03;8.17;;;20.70;84.20;;;;;;5115349;28;20192;-66
2023/06/02 00:26:36;;;;;;;9.07;8.03;;;20.70;84.60;;;;;;5119207;27;20212;-67
2023/06/02 00:29:03;;;;;;;10.63;7.97;;;20.70;84.80;;;;;;5116019;27;20196;-66
2023/06/02 00:31:30;;;;;;;13.57;8.43;;;20.60;84.70;;;;;;5116137;27;20222;-66
2023/06/02 00:33:58;;;;;;;11.17;8.23;;;20.60;84.80;;;;;;5114615;27;20208;-66
2023/06/02 00:36:25;;;;;;;9.50;7.83;;;20.50;84.90;;;;;;5114733;27;20197;-66
2023/06/02 00:38:52;;;;;;;15.00;9.77;;;20.50;84.90;;;;;;5114935;27;20192;-66
2023/06/02 00:41:19;;;;;;;13.97;9.63;;;20.40;84.80;;;;;;5119108;27;20196;-66
2023/06/02 00:43:46;;;;;;;10.37;8.87;;;20.40;84.90;;;;;;5101535;27;20197;-66
2023/06/02 00:46:13;;;;;;;13.53;9.77;;;20.30;85.20;;;;;;5115895;27;20219;-66
2023/06/02 00:48:40;;;;;;;13.97;10.57;;;20.20;85.40;;;;;;5114005;27;20701;-66
2023/06/02 00:51:07;;;;;;;15.57;10.23;;;20.10;85.50;;;;;;5117581;27;20264;-67
2023/06/02 00:53:36;;;;;;;13.20;9.43;;;20.10;85.80;;;;;;5115835;27;20224;-66
2023/06/02 00:56:03;;;;;;;11.17;9.90;;;20.00;86.10;;;;;;5120249;27;20252;-66
2023/06/02 00:58:37;;;;;;;12.10;9.60;;;20.00;86.30;;;;;;5116874;27;20205;-66
2023/06/02 01:01:08;;;;;;;14.57;10.37;;;19.90;86.40;;;;;;5117242;27;20192;-66
2023/06/02 01:03:37;;;;;;;15.90;10.30;;;19.90;86.60;;;;;;5118963;27;20208;-66
2023/06/02 01:06:07;;;;;;;17.27;11.00;;;19.80;86.80;;;;;;5116587;27;20238;-66
2023/06/02 01:08:37;;;;;;;17.77;11.30;;;19.70;86.80;;;;;;5116252;27;20261;-67
2023/06/02 01:11:05;;;;;;;19.77;11.67;;;19.70;86.90;;;;;;5117468;27;20630;-66
2023/06/02 01:13:33;;;;;;;15.07;11.37;;;19.60;86.90;;;;;;5115382;27;20293;-67
2023/06/02 01:16:01;;;;;;;18.10;12.23;;;19.60;87.00;;;;;;5114692;27;20211;-66
2023/06/02 01:18:31;;;;;;;18.83;12.17;;;19.60;87.20;;;;;;5115636;27;20192;-66
2023/06/02 01:21:01;;;;;;;21.50;12.33;;;19.60;87.50;;;;;;5116762;27;20612;-66
2023/06/02 01:23:33;;;;;;;17.90;12.07;;;19.60;87.50;;;;;;5116080;27;20215;-67
2023/06/02 01:26:05;;;;;;;18.37;12.03;;;19.60;87.40;;;;;;5116989;27;20242;-66
2023/06/02 01:28:32;;;;;;;14.37;11.27;;;19.60;87.30;;;;;;5107594;28;20204;-66
2023/06/02 01:31:08;;;;;;;18.43;11.30;;;19.60;87.40;;;;;;5114655;27;20210;-67
2023/06/02 01:33:41;;;;;;;18.33;10.83;;;19.60;88.40;;;;;;5129413;27;20277;-66
2023/06/02 01:36:08;;;;;;;16.13;11.63;;;19.60;87.90;;;;;;5116336;27;20227;-67
2023/06/02 01:38:38;;;;;;;16.20;12.37;;;19.60;88.00;;;;;;5118147;27;20192;-66
2023/06/02 01:41:06;;;;;;;16.33;11.67;;;19.60;88.10;;;;;;5104465;27;20204;-66
2023/06/02 01:43:36;;;;;;;14.70;11.47;;;19.60;88.20;;;;;;5115925;27;20589;-66
2023/06/02 01:46:06;;;;;;;16.47;12.70;;;19.60;88.30;;;;;;5114348;27;20256;-66
2023/06/02 01:48:34;;;;;;;15.30;11.17;;;19.60;88.30;;;;;;5117729;27;20239;-66
2023/06/02 01:51:02;;;;;;;13.70;12.30;;;19.60;88.30;;;;;;5114504;27;20197;-66
2023/06/02 01:53:29;;;;;;;15.10;12.23;;;19.60;88.30;;;;;;5115804;27;20207;-66
2023/06/02 01:55:58;;;;;;;14.87;12.70;;;19.60;88.10;;;;;;5118328;27;20253;-66
2023/06/02 01:58:25;;;;;;;14.87;12.30;;;19.60;87.90;;;;;;5114938;27;20557;-66
2023/06/02 02:00:54;;;;;;;14.60;12.87;;;19.50;87.80;;;;;;5112384;27;20693;-67
2023/06/02 02:03:22;;;;;;;16.57;11.60;;;19.50;87.80;;;;;;5116976;27;20208;-66
2023/06/02 02:05:49;;;;;;;13.47;11.97;;;19.50;87.90;;;;;;5112497;27;20213;-66
2023/06/02 02:08:17;;;;;;;15.60;12.27;;;19.50;88.10;;;;;;5116812;27;20502;-66
2023/06/02 02:10:44;;;;;;;13.33;11.77;;;19.50;88.20;;;;;;5116155;27;20215;-66
2023/06/02 02:13:11;;;;;;;14.90;11.87;;;19.50;88.10;;;;;;5115013;27;20195;-67
2023/06/02 02:15:38;;;;;;;15.20;12.67;;;19.50;87.80;;;;;;5118827;27;20226;-66
2023/06/02 02:18:06;;;;;;;16.23;12.80;;;19.50;87.80;;;;;;5117889;27;20204;-66
2023/06/02 02:20:40;;;;;;;14.07;11.57;;;19.40;87.80;;;;;;5116225;28;20205;-66
2023/06/02 02:23:07;;;;;;;16.00;11.53;;;19.40;88.00;;;;;;5112994;27;20207;-67
2023/06/02 02:25:34;;;;;;;16.00;12.50;;;19.40;87.90;;;;;;5119370;27;20215;-66
2023/06/02 02:28:01;;;;;;;13.43;12.03;;;19.40;88.10;;;;;;5113617;28;20252;-66
2023/06/02 02:30:28;;;;;;;16.17;12.87;;;19.40;88.20;;;;;;5117937;27;20522;-67
2023/06/02 02:32:57;;;;;;;17.20;12.53;;;19.40;88.20;;;;;;5114174;27;20663;-66
2023/06/02 02:35:24;;;;;;;15.00;12.57;;;19.40;87.80;;;;;;5113133;28;20231;-66
2023/06/02 02:37:51;;;;;;;14.53;13.13;;;19.30;87.60;;;;;;5113746;28;20204;-66
2023/06/02 02:40:23;;;;;;;18.57;12.90;;;19.20;87.60;;;;;;5114984;28;20212;-66
2023/06/02 02:42:50;;;;;;;18.37;13.93;;;19.20;87.90;;;;;;5108815;28;20687;-66
2023/06/02 02:45:19;;;;;;;15.83;14.27;;;19.10;88.30;;;;;;5115758;28;20222;-66
2023/06/02 02:47:47;;;;;;;15.67;12.80;;;19.00;88.70;;;;;;5104252;28;20245;-67
2023/06/02 02:50:14;;;;;;;24.00;13.20;;;19.00;89.00;;;;;;5114884;28;20291;-66
2023/06/02 02:52:42;;;;;;;19.60;13.10;;;19.00;89.20;;;;;;5114350;28;20203;-66
2023/06/02 02:55:10;;;;;;;19.30;13.77;;;18.90;89.30;;;;;;5112849;28;20265;-66
2023/06/02 02:57:37;;;;;;;17.43;13.63;;;18.90;89.30;;;;;;5112202;28;20261;-67
2023/06/02 03:00:08;;;;;;;16.30;13.10;;;18.90;89.40;;;;;;5099183;28;20632;-67
2023/06/02 03:02:36;;;;;;;17.77;12.70;;;18.90;89.40;;;;;;5117868;28;20656;-66
2023/06/02 03:05:05;;;;;;;17.47;13.67;;;18.90;89.40;;;;;;5111619;28;20306;-66
2023/06/02 03:07:39;;;;;;;18.73;14.27;;;18.90;89.60;;;;;;5117122;28;20280;-66
2023/06/02 03:10:07;;;;;;;15.47;13.77;;;18.80;89.60;;;;;;5118419;27;20229;-66
2023/06/02 03:12:36;;;;;;;21.57;13.67;;;18.70;89.70;;;;;;5115845;28;20196;-66
2023/06/02 03:15:03;;;;;;;23.70;15.07;;;18.70;89.70;;;;;;5121948;27;20537;-66
2023/06/02 03:17:32;;;;;;;16.20;13.57;;;18.60;89.70;;;;;;5115900;27;20196;-67
2023/06/02 03:20:00;;;;;;;17.27;14.73;;;18.60;90.20;;;;;;5130442;27;20204;-66
2023/06/02 03:22:29;;;;;;;14.53;13.10;;;18.60;90.10;;;;;;5121048;27;20187;-66
2023/06/02 03:24:57;;;;;;;16.33;13.47;;;18.60;90.20;;;;;;5117406;27;20214;-66
2023/06/02 03:27:24;;;;;;;16.93;14.10;;;18.60;90.20;;;;;;5117209;27;20220;-66
2023/06/02 03:29:54;;;;;;;16.07;14.43;;;18.50;90.30;;;;;;5120386;27;20218;-66
2023/06/02 03:32:26;;;;;;;18.37;14.63;;;18.50;90.30;;;;;;5116673;27;20195;-66
2023/06/02 03:34:53;;;;;;;17.30;14.10;;;18.50;90.40;;;;;;5119705;27;20211;-66
2023/06/02 03:37:21;;;;;;;15.90;14.13;;;18.50;90.50;;;;;;5105739;27;20206;-66
2023/06/02 03:39:49;;;;;;;17.73;15.67;;;18.50;90.50;;;;;;5117404;27;20205;-66
2023/06/02 03:42:17;;;;;;;18.63;14.67;;;18.60;90.60;;;;;;5133085;27;20203;-66
2023/06/02 03:44:45;;;;;;;22.97;15.63;;;18.60;90.50;;;;;;5118772;27;20241;-66
2023/06/02 03:47:12;;;;;;;16.87;13.47;;;18.50;90.40;;;;;;5119652;27;20207;-66
2023/06/02 03:49:40;;;;;;;26.10;14.90;;;18.60;90.40;;;;;;5118405;27;20208;-66
2023/06/02 03:52:08;;;;;;;19.50;14.20;;;18.50;90.30;;;;;;5102026;27;20210;-66
2023/06/02 03:54:35;;;;;;;19.07;14.57;;;18.50;90.40;;;;;;5117462;27;20220;-66
2023/06/02 03:57:03;;;;;;;17.37;13.10;;;18.50;90.60;;;;;;5116934;27;20585;-66
2023/06/02 03:59:31;;;;;;;18.07;14.70;;;18.50;90.90;;;;;;5120237;27;20302;-66
2023/06/02 04:01:58;;;;;;;17.00;14.43;;;18.50;90.70;;;;;;5117060;27;20256;-66
2023/06/02 04:04:26;;;;;;;18.77;14.40;;;18.50;90.70;;;;;;5122831;27;20237;-66
2023/06/02 04:06:54;;;;;;;19.37;14.30;;;18.60;90.80;;;;;;5119156;27;20192;-66
2023/06/02 04:09:21;;;;;;;19.63;13.77;;;18.60;90.80;;;;;;5116191;27;20258;-66
2023/06/02 04:11:48;;;;;;;16.70;13.47;;;18.60;90.90;;;;;;5119529;27;20223;-66
2023/06/02 04:14:16;;;;;;;18.33;15.53;;;18.70;90.90;;;;;;5118461;27;20223;-66
2023/06/02 04:16:46;;;;;;;17.43;14.17;;;18.70;90.90;;;;;;5116405;27;20620;-66
2023/06/02 04:19:14;;;;;;;15.67;13.70;;;18.70;90.80;;;;;;5117317;27;20540;-66
2023/06/02 04:21:41;;;;;;;17.33;14.30;;;18.70;90.80;;;;;;5118721;27;20997;-66
2023/06/02 04:24:09;;;;;;;15.60;14.00;;;18.80;90.90;;;;;;5117175;27;20252;-66
2023/06/02 04:26:37;;;;;;;15.33;13.93;;;18.80;90.90;;;;;;5115650;27;20196;-66
2023/06/02 04:29:04;;;;;;;17.40;14.00;;;18.80;90.80;;;;;;5115974;27;20215;-66
2023/06/02 04:31:45;;;;;;;20.00;15.37;;;18.90;90.80;;;;;;5114062;27;20219;-66
2023/06/02 04:34:21;;;;;;;20.53;14.60;;;18.90;90.70;;;;;;5118063;27;20666;-66
2023/06/02 04:36:50;;;;;;;18.83;14.97;;;19.00;90.70;;;;;;5119321;27;20227;-66
2023/06/02 04:39:19;;;;;;;17.13;13.57;;;19.00;90.70;;;;;;5117274;27;20204;-66
2023/06/02 04:41:49;;;;;;;19.20;14.17;;;19.10;90.70;;;;;;5119097;27;20696;-66
2023/06/02 04:44:17;;;;;;;20.90;14.77;;;19.20;90.60;;;;;;5117615;27;20224;-66
2023/06/02 04:46:46;;;;;;;19.73;14.53;;;19.20;90.60;;;;;;5116231;27;20257;-66
2023/06/02 04:49:13;;;;;;;16.67;15.00;;;19.30;90.70;;;;;;5119761;27;20574;-66
2023/06/02 04:51:41;;;;;;;15.83;14.20;;;19.30;90.70;;;;;;5118071;27;20847;-66
2023/06/02 04:54:10;;;;;;;19.33;14.17;;;19.40;90.70;;;;;;5116005;27;20191;-66
2023/06/02 04:56:39;;;;;;;22.80;14.57;;;19.50;90.70;;;;;;5119718;27;20243;-66
2023/06/02 04:59:11;;;;;;;17.07;14.07;;;19.60;90.70;;;;;;5116099;27;20282;-66
2023/06/02 05:01:39;;;;;;;16.30;12.80;;;19.70;90.60;;;;;;5117283;27;20200;-66
2023/06/02 05:04:07;;;;;;;19.27;14.50;;;19.80;90.60;;;;;;5116774;27;20209;-66
2023/06/02 05:06:35;;;;;;;17.03;13.93;;;19.80;90.60;;;;;;5116451;27;20271;-66
2023/06/02 05:09:02;;;;;;;17.07;13.20;;;20.00;90.60;;;;;;5117947;27;20637;-66
2023/06/02 05:11:32;;;;;;;16.30;14.33;;;20.00;90.50;;;;;;5119000;27;20208;-66
2023/06/02 05:14:01;;;;;;;16.37;14.30;;;20.10;90.40;;;;;;5114717;27;20188;-66
2023/06/02 05:16:30;;;;;;;15.43;13.20;;;20.20;90.30;;;;;;5132465;27;20994;-66
2023/06/02 05:18:58;;;;;;;19.07;13.10;;;20.30;90.30;;;;;;5122051;27;20211;-66
2023/06/02 05:21:28;;;;;;;19.70;12.90;;;20.40;90.20;;;;;;5117432;27;20203;-66
2023/06/02 05:23:58;;;;;;;16.17;12.57;;;20.60;90.00;;;;;;5119410;27;20194;-66
2023/06/02 05:26:26;;;;;;;19.37;12.70;;;20.80;89.20;;;;;;5117991;27;20200;-66
2023/06/02 05:28:54;;;;;;;16.73;12.20;;;20.90;88.70;;;;;;5099522;28;20196;-66
2023/06/02 05:31:22;;;;;;;13.10;11.70;;;21.00;88.30;;;;;;5111017;27;20200;-66
2023/06/02 05:33:50;;;;;;;15.80;10.97;;;21.10;88.00;;;;;;5117992;27;20208;-66
2023/06/02 05:36:17;;;;;;;13.07;11.23;;;21.20;87.80;;;;;;5115948;27;20301;-66
2023/06/02 05:38:44;;;;;;;13.67;11.47;;;21.30;87.20;;;;;;5115840;27;20207;-66
2023/06/02 05:41:13;;;;;;;13.10;11.70;;;21.50;86.80;;;;;;5117012;27;20192;-66
2023/06/02 05:43:40;;;;;;;17.43;12.27;;;21.60;86.30;;;;;;5116438;27;20665;-66
2023/06/02 05:46:07;;;;;;;14.20;12.33;;;21.80;86.00;;;;;;5116244;27;20201;-66
2023/06/02 05:48:34;;;;;;;14.30;12.33;;;21.90;85.90;;;;;;5119515;27;20266;-66
2023/06/02 05:51:02;;;;;;;17.50;13.43;;;22.00;85.60;;;;;;5102876;27;20213;-66
2023/06/02 05:53:29;;;;;;;15.10;12.33;;;22.00;85.30;;;;;;5115614;27;20211;-66
2023/06/02 05:55:57;;;;;;;17.30;13.30;;;22.10;85.00;;;;;;5115343;27;20219;-66
2023/06/02 05:58:25;;;;;;;15.23;12.93;;;22.20;84.60;;;;;;5115926;27;20269;-66
2023/06/02 06:00:53;;;;;;;15.70;13.23;;;22.20;84.40;;;;;;5113950;27;20223;-66
2023/06/02 06:03:21;;;;;;;14.10;12.60;;;22.30;84.40;;;;;;5115101;27;20197;-67
2023/06/02 06:05:48;;;;;;;18.33;14.13;;;22.30;84.50;;;;;;5113311;27;20611;-66
2023/06/02 06:08:15;;;;;;;13.37;12.07;;;22.40;84.20;;;;;;5113048;27;20642;-65
2023/06/02 06:10:42;;;;;;;15.67;12.10;;;22.50;83.90;;;;;;5116244;27;20208;-65
2023/06/02 06:13:14;;;;;;;14.73;11.70;;;22.50;83.90;;;;;;5116700;27;20290;-67
2023/06/02 06:15:41;;;;;;;13.47;11.40;;;22.60;84.00;;;;;;5119004;27;20268;-66
2023/06/02 06:18:08;;;;;;;12.37;11.03;;;22.70;83.40;;;;;;5114188;27;20193;-66
2023/06/02 06:20:35;;;;;;;13.10;11.70;;;22.80;83.10;;;;;;5111529;27;20213;-64
2023/06/02 06:23:02;;;;;;;14.90;11.30;;;22.90;83.30;;;;;;5097624;28;20250;-65
2023/06/02 06:25:32;;;;;;;13.77;10.60;;;23.10;83.20;;;;;;5113698;27;20233;-65
2023/06/02 06:27:59;;;;;;;14.70;10.13;;;23.20;83.10;;;;;;5111785;27;20204;-65
2023/06/02 06:30:29;;;;;;;11.37;10.27;;;23.40;82.70;;;;;;5118220;27;20243;-65
2023/06/02 06:33:01;;;;;;;14.20;10.57;;;23.50;80.90;;;;;;5114263;27;20262;-68
2023/06/02 06:35:30;;;;;;;11.37;10.27;;;23.60;80.90;;;;;;5112491;27;20216;-68
2023/06/02 06:38:01;;;;;;;11.27;10.13;;;23.70;80.90;;;;;;5114648;28;20196;-67
2023/06/02 06:40:29;;;;;;;12.03;10.83;;;23.80;80.20;;;;;;5113706;28;20199;-64
2023/06/02 06:42:56;;;;;;;12.00;10.80;;;23.90;79.80;;;;;;5111134;28;20633;-64
2023/06/02 06:45:38;;;;;;;13.27;11.73;;;24.10;78.90;;;;;;5122814;27;20197;-66
2023/06/02 06:48:06;;;;;;;14.07;11.40;;;24.20;78.70;;;;;;5123461;27;20300;-65
2023/06/02 06:50:33;;;;;;;12.80;11.50;;;24.40;78.30;;;;;;5121725;27;20192;-66
2023/06/02 06:53:03;;;;;;;14.20;11.27;;;24.50;77.40;;;;;;5125993;27;20196;-64
2023/06/02 06:55:30;;;;;;;13.27;11.87;;;24.60;77.00;;;;;;5123765;27;20512;-65
2023/06/02 06:57:57;;;;;;;14.10;12.27;;;24.60;77.30;;;;;;5121754;27;20197;-64
2023/06/02 07:00:24;;;;;;;13.33;12.00;;;24.80;77.30;;;;;;5121162;27;20192;-65
2023/06/02 07:02:51;;;;;;;13.57;12.17;;;24.80;76.70;;;;;;5123846;27;20238;-66
2023/06/02 07:05:20;;;;;;;14.07;12.63;;;24.90;75.70;;;;;;5122791;27;20244;-66
2023/06/02 07:07:47;;;;;;;15.90;13.70;;;25.00;76.20;;;;;;5122453;27;20261;-67
2023/06/02 07:10:14;;;;;;;15.20;13.30;;;25.10;74.80;;;;;;5122434;27;20200;-66
2023/06/02 07:12:41;;;;;;;13.73;12.33;;;25.10;74.60;;;;;;5119917;27;20646;-66
2023/06/02 07:15:08;;;;;;;16.80;13.80;;;25.10;74.90;;;;;;5122789;27;20220;-68
2023/06/02 07:17:35;;;;;;;14.90;13.27;;;25.20;75.30;;;;;;5121807;27;20204;-66
2023/06/02 07:20:03;;;;;;;15.87;14.10;;;25.40;74.90;;;;;;5119992;27;20213;-65
2023/06/02 07:22:30;;;;;;;17.53;14.30;;;25.40;74.00;;;;;;5125728;27;20470;-66
2023/06/02 07:24:57;;;;;;;15.60;13.53;;;25.50;74.80;;;;;;5122073;27;20523;-66
2023/06/02 07:27:24;;;;;;;16.70;14.90;;;25.60;75.20;;;;;;5118556;27;20197;-65
2023/06/02 07:29:51;;;;;;;17.93;15.23;;;25.80;74.20;;;;;;5125551;27;20205;-67
2023/06/02 07:32:18;;;;;;;17.47;14.73;;;25.90;73.60;;;;;;5122493;27;20211;-67
2023/06/02 07:34:45;;;;;;;22.00;15.53;;;26.00;73.60;;;;;;5119878;27;20520;-67
2023/06/02 07:37:13;;;;;;;15.93;14.23;;;26.20;73.10;;;;;;5122612;27;20218;-67
2023/06/02 07:39:40;;;;;;;18.23;16.27;;;26.20;72.90;;;;;;5119822;27;20188;-67
2023/06/02 07:42:07;;;;;;;17.27;15.50;;;26.30;72.90;;;;;;5120617;27;20623;-66
2023/06/02 07:44:34;;;;;;;19.03;17.03;;;26.40;72.40;;;;;;5119042;27;20192;-67
2023/06/02 07:47:01;;;;;;;19.83;17.13;;;26.40;71.60;;;;;;5124783;27;20622;-67
2023/06/02 07:49:32;;;;;;;20.20;18.07;;;26.40;71.10;;;;;;5121806;27;20617;-66
2023/06/02 07:51:59;;;;;;;20.10;16.57;;;26.40;70.80;;;;;;5122539;27;20243;-68
2023/06/02 07:54:26;;;;;;;19.63;16.97;;;26.40;71.60;;;;;;5121264;27;20206;-67
2023/06/02 07:56:53;;;;;;;17.57;15.77;;;26.50;72.80;;;;;;5121257;27;20668;-67
2023/06/02 07:59:20;;;;;;;19.53;15.83;;;26.60;72.20;;;;;;5121336;27;20208;-67
2023/06/02 08:01:47;;;;;;;17.70;15.97;;;26.70;71.70;;;;;;5120355;27;20211;-67
2023/06/02 08:04:14;;;;;;;21.17;16.40;;;26.90;71.90;;;;;;5114881;27;20193;-67
2023/06/02 08:06:41;;;;;;;17.10;15.40;;;27.10;71.50;;;;;;5123767;27;20195;-67
2023/06/02 08:09:09;;;;;;;19.83;15.47;;;27.20;71.70;;;;;;5117106;27;20227;-68
2023/06/02 08:11:36;;;;;;;17.23;15.40;;;27.30;71.10;;;;;;5118511;27;20208;-67
2023/06/02 08:14:04;;;;;;;17.37;15.57;;;27.40;70.70;;;;;;5118544;27;20614;-68
2023/06/02 08:16:31;;;;;;;17.43;15.83;;;27.60;70.00;;;;;;5115923;27;20322;-67
2023/06/02 08:19:11;;;;;;;16.93;15.13;;;27.70;69.80;;;;;;5117312;27;20200;-68
2023/06/02 08:21:40;;;;;;;21.73;15.33;;;27.70;70.00;;;;;;5120845;27;20204;-66
2023/06/02 08:24:07;;;;;;;19.30;15.33;;;27.80;69.90;;;;;;5116275;27;20630;-67
2023/06/02 08:26:39;;;;;;;18.07;15.20;;;28.00;69.80;;;;;;5120612;27;20199;-67
2023/06/02 08:29:10;;;;;;;16.97;15.37;;;28.10;69.80;;;;;;5120765;27;20203;-67
2023/06/02 08:31:38;;;;;;;16.43;14.83;;;28.30;69.70;;;;;;5114519;27;20201;-67
2023/06/02 08:34:08;;;;;;;17.67;15.87;;;28.50;68.50;;;;;;5117825;27;20215;-68
2023/06/02 08:36:35;;;;;;;16.10;14.63;;;28.60;68.40;;;;;;5118188;27;20577;-68
2023/06/02 08:39:08;;;;;;;18.17;16.37;;;28.70;68.30;;;;;;5115529;27;20249;-67
2023/06/02 08:41:39;;;;;;;18.03;16.33;;;28.70;68.00;;;;;;5116573;27;20200;-67
2023/06/02 08:44:07;;;;;;;17.60;16.00;;;28.80;67.40;;;;;;5116955;27;20207;-65
2023/06/02 08:46:34;;;;;;;17.33;15.27;;;28.90;67.20;;;;;;5111461;27;20207;-67
2023/06/02 08:49:02;;;;;;;17.30;15.50;;;28.90;67.10;;;;;;5118463;27;20236;-68
2023/06/02 08:51:37;;;;;;;14.17;12.87;;;29.10;67.30;;;;;;5120948;27;20555;-67
2023/06/02 08:54:10;;;;;;;15.53;14.03;;;29.20;67.00;;;;;;5116467;27;20192;-68
2023/06/02 08:56:38;;;;;;;17.07;15.27;;;29.30;66.50;;;;;;5118599;27;20305;-68
2023/06/02 08:59:05;;;;;;;16.03;14.43;;;29.30;66.50;;;;;;5116635;27;20250;-68
2023/06/02 09:01:32;;;;;;;13.93;12.43;;;29.40;66.10;;;;;;5111248;27;20193;-68
2023/06/02 09:03:59;;;;;;;13.93;11.93;;;29.50;66.20;;;;;;5118180;27;20276;-67
2023/06/02 09:06:28;;;;;;;16.87;13.13;;;29.50;65.00;;;;;;5118117;27;20204;-69
2023/06/02 09:08:56;;;;;;;18.27;12.73;;;29.40;64.90;;;;;;5115450;28;20204;-68
2023/06/02 09:11:25;;;;;;;14.37;12.77;;;29.40;65.70;;;;;;5118164;27;20204;-68
2023/06/02 09:13:53;;;;;;;13.30;11.70;;;29.50;65.50;;;;;;5121951;27;20204;-68
2023/06/02 09:16:22;;;;;;;14.53;12.80;;;29.50;65.00;;;;;;5115562;27;20216;-68
2023/06/02 09:18:59;;;;;;;13.87;12.47;;;29.60;64.50;;;;;;5119809;27;20187;-68
2023/06/02 09:21:32;;;;;;;11.57;10.47;;;29.60;64.00;;;;;;5116219;27;20641;-68
2023/06/02 09:24:02;;;;;;;12.50;10.30;;;29.60;64.50;;;;;;5116590;27;20203;-67
2023/06/02 09:26:50;;;;;;;12.43;11.13;;;29.70;64.60;;;;;;5119200;27;20222;-68
2023/06/02 09:29:18;;;;;;;13.70;10.57;;;29.80;63.60;;;;;;5115982;27;20708;-69
2023/06/02 09:31:54;;;;;;;12.80;10.03;;;29.90;64.00;;;;;;5111072;27;20254;-68
2023/06/02 09:34:24;;;;;;;16.87;11.07;;;30.00;63.00;;;;;;5114471;27;20548;-68
2023/06/02 09:36:53;;;;;;;13.00;9.37;;;30.00;64.00;;;;;;5114340;27;20237;-68
2023/06/02 09:39:34;;;;;;;13.73;8.57;;;30.20;63.90;;;;;;5114108;27;20565;-68
2023/06/02 09:42:02;;;;;;;12.10;8.47;;;30.30;62.60;;;;;;5118942;27;20288;-66
2023/06/02 09:44:29;;;;;;;10.70;7.70;;;30.40;61.50;;;;;;5115773;27;20222;-65
2023/06/02 09:46:57;;;;;;;8.87;7.53;;;30.30;60.20;;;;;;5123890;27;20292;-66
2023/06/02 09:49:24;;;;;;;12.90;8.63;;;30.20;59.30;;;;;;5116165;27;20236;-66
2023/06/02 09:51:51;;;;;;;8.77;7.77;;;30.20;59.50;;;;;;5114514;27;20299;-66
2023/06/02 09:54:19;;;;;;;9.73;8.80;;;30.20;59.90;;;;;;5118247;27;20207;-66
2023/06/02 09:56:48;;;;;;;10.80;8.27;;;30.20;60.20;;;;;;5117832;27;20209;-66
2023/06/02 09:59:17;;;;;;;9.77;7.43;;;30.30;60.80;;;;;;5113962;27;20191;-66
2023/06/02 10:01:44;;;;;;;9.07;7.20;;;30.40;60.20;;;;;;5117526;27;20192;-66
2023/06/02 10:04:11;;;;;;;7.10;6.50;;;30.50;60.40;;;;;;5119464;27;20513;-67
2023/06/02 10:07:00;;;;;;;10.30;5.80;;;30.60;59.80;;;;;;5116571;27;20192;-66
2023/06/02 10:09:36;;;;;;;6.07;5.50;;;30.70;59.10;;;;;;5120699;27;20239;-66
2023/06/02 10:12:34;;;;;;;6.97;5.47;;;30.70;58.80;;;;;;5115709;28;20200;-67
2023/06/02 10:15:26;;;;;;;7.87;6.00;;;30.80;58.10;;;;;;5115667;27;20213;-66
2023/06/02 10:18:12;;;;;;;9.27;6.57;;;30.80;57.10;;;;;;5104906;27;20208;-67
2023/06/02 10:21:11;;;;;;;8.60;5.43;;;30.80;54.20;;;;;;5113802;27;20211;-67
2023/06/02 10:24:04;;;;;;;7.20;6.00;;;30.90;55.30;;;;;;5119077;27;20257;-66
2023/06/02 10:26:59;;;;;;;8.57;6.27;;;30.90;56.70;;;;;;5110812;27;20204;-67
2023/06/02 10:29:29;;;;;;;9.07;6.70;;;31.00;56.30;;;;;;5114131;27;20208;-67
2023/06/02 10:31:56;;;;;;;9.40;5.90;;;31.00;56.00;;;;;;5118778;27;20483;-66
2023/06/02 10:34:38;;;;;;;6.50;5.53;;;31.10;56.80;;;;;;5115457;27;20256;-67
2023/06/02 10:37:10;;;;;;;7.03;5.77;;;31.10;55.60;;;;;;5112624;28;20219;-67
2023/06/02 10:39:40;;;;;;;6.20;5.60;;;31.10;55.40;;;;;;5118373;27;20541;-66
2023/06/02 10:42:09;;;;;;;8.50;6.33;;;31.10;57.00;;;;;;5115083;27;20489;-67
2023/06/02 10:44:37;;;;;;;6.90;5.23;;;31.20;56.60;;;;;;5117573;28;20196;-67
2023/06/02 10:47:20;;;;;;;13.43;6.43;;;31.20;56.20;;;;;;5119994;28;20192;-67
2023/06/02 10:49:58;;;;;;;6.60;5.20;;;31.30;55.50;;;;;;5115805;28;20203;-67
2023/06/02 10:52:26;;;;;;;9.87;5.97;;;31.50;56.10;;;;;;5114060;28;20192;-66
2023/06/02 10:55:12;;;;;;;6.57;5.97;;;31.60;55.60;;;;;;5114971;28;20268;-66
2023/06/02 10:57:51;;;;;;;10.13;6.47;;;31.70;53.90;;;;;;5113583;28;20220;-66
2023/06/02 11:00:36;;;;;;;8.30;6.47;;;31.60;55.40;;;;;;5116224;28;20233;-66
2023/06/02 11:03:25;;;;;;;6.97;5.77;;;31.50;54.20;;;;;;5118552;28;20207;-66
2023/06/02 11:06:19;;;;;;;9.13;5.57;;;31.40;55.20;;;;;;5113359;28;20227;-66
2023/06/02 11:08:47;;;;;;;6.87;6.20;;;31.50;54.80;;;;;;5117957;28;20196;-66
2023/06/02 11:11:51;;;;;;;6.53;5.90;;;31.60;54.30;;;;;;5117673;28;20214;-66
2023/06/02 11:14:19;;;;;;;7.53;5.40;;;31.70;54.50;;;;;;5122387;27;20204;-66
2023/06/02 11:16:46;;;;;;;8.97;5.53;;;31.80;51.50;;;;;;5116589;28;20650;-66
2023/06/02 11:19:49;;;;;;;10.83;6.10;;;31.80;52.60;;;;;;5115044;28;20242;-66
2023/06/02 11:22:18;;;;;;;9.57;5.80;;;31.80;52.90;;;;;;5116955;28;20189;-66
2023/06/02 11:24:47;;;;;;;7.60;6.20;;;31.80;52.30;;;;;;5113468;28;20184;-66
2023/06/02 11:27:14;;;;;;;6.70;6.00;;;31.80;53.30;;;;;;5113684;28;20623;-66
2023/06/02 11:29:44;;;;;;;9.23;5.90;;;31.80;52.90;;;;;;5113068;28;20291;-66
2023/06/02 11:32:15;;;;;;;6.33;5.20;;;31.80;52.20;;;;;;5115657;27;20192;-66
2023/06/02 11:34:42;;;;;;;6.43;5.87;;;31.80;51.90;;;;;;5116399;27;20192;-66
2023/06/02 11:37:14;;;;;;;6.03;5.50;;;31.80;52.50;;;;;;5119821;27;20209;-67
2023/06/02 11:39:52;;;;;;;6.97;5.53;;;31.80;51.90;;;;;;5121034;27;20536;-66
2023/06/02 11:42:19;;;;;;;7.40;6.33;;;31.80;51.30;;;;;;5114065;27;20192;-67
2023/06/02 11:44:50;;;;;;;5.90;5.33;;;31.80;51.10;;;;;;5118278;27;20226;-66
2023/06/02 11:47:20;;;;;;;5.70;5.20;;;31.80;51.30;;;;;;5120990;27;20219;-66
2023/06/02 11:49:50;;;;;;;6.30;4.50;;;31.80;50.90;;;;;;5117060;27;20526;-66
2023/06/02 11:52:18;;;;;;;9.47;5.17;;;31.80;51.70;;;;;;5120339;27;20882;-65
2023/06/02 11:54:50;;;;;;;6.27;4.83;;;31.80;51.30;;;;;;5120112;27;20665;-66
2023/06/02 11:57:33;;;;;;;3.97;3.67;;;31.80;51.20;;;;;;5114405;27;20232;-66
2023/06/02 12:00:06;;;;;;;4.43;4.03;;;31.80;50.80;;;;;;5118102;27;20253;-66
2023/06/02 12:02:33;;;;;;;4.63;4.17;;;31.70;50.80;;;;;;5117981;27;20220;-66
2023/06/02 12:05:00;;;;;;;5.27;4.30;;;31.70;50.80;;;;;;5116173;27;20221;-66
2023/06/02 12:07:28;;;;;;;4.90;4.07;;;31.80;51.20;;;;;;5119549;27;20540;-66
2023/06/02 12:09:55;;;;;;;4.23;3.87;;;31.80;48.50;;;;;;5120414;27;20196;-66
2023/06/02 12:12:23;;;;;;;4.70;4.13;;;31.80;48.20;;;;;;5117255;27;20208;-66
2023/06/02 12:14:50;;;;;;;6.17;4.17;;;31.90;48.40;;;;;;5121019;27;20257;-66
2023/06/02 12:17:17;;;;;;;4.70;4.30;;;32.00;48.70;;;;;;5118144;27;20212;-66
2023/06/02 12:19:56;;;;;;;5.90;3.70;;;32.00;47.70;;;;;;5117300;27;20192;-66
2023/06/02 12:22:23;;;;;;;6.80;4.40;;;32.00;47.60;;;;;;5120233;27;20652;-66
2023/06/02 12:24:51;;;;;;;5.20;4.10;;;32.10;47.00;;;;;;5117523;27;20196;-66
2023/06/02 12:27:24;;;;;;;7.07;3.67;;;32.10;46.50;;;;;;5119414;27;20219;-66
2023/06/02 12:29:53;;;;;;;4.37;3.80;;;32.00;46.70;;;;;;5120128;27;20200;-66
2023/06/02 12:32:26;;;;;;;5.43;4.03;;;32.00;47.40;;;;;;5119037;27;20291;-66
2023/06/02 12:34:54;;;;;;;4.40;3.60;;;32.00;46.90;;;;;;5116095;27;20227;-66
2023/06/02 12:37:21;;;;;;;6.17;4.00;;;32.00;46.70;;;;;;5122124;27;20222;-66
2023/06/02 12:39:48;;;;;;;5.70;4.10;;;32.00;47.20;;;;;;5117943;27;20282;-66
2023/06/02 12:42:18;;;;;;;5.53;3.93;;;31.90;46.00;;;;;;5118901;27;20211;-66
2023/06/02 12:44:46;;;;;;;6.23;3.80;;;31.90;47.70;;;;;;5119242;27;20204;-67
2023/06/02 12:47:13;;;;;;;7.97;3.97;;;31.90;47.70;;;;;;5114215;27;20274;-66